sensor_id;sensor_type;location;lat;lon;timestamp;temperature;humidity
11091;DHT22;5599;52.210;21.046;2023-02-01T00:01:37;4.00;99.90
11091;DHT22;5599;52.210;21.046;2023-02-01T00:04:06;4.00;99.90
11091;DHT22;5599;52.210;21.046;2023-02-01T00:06:35;3.90;99.90
11091;DHT22;5599;52.210;21.046;2023-02-01T00:09:06;4.00;97.50
11091;DHT22;5599;52.210;21.046;2023-02-01T00:11:35;3.90;97.40
11091;DHT22;5599;52.210;21.046;2023-02-01T00:14:05;4.00;99.90
11091;DHT22;5599;52.210;21.046;2023-02-01T00:16:35;4.00;99.90
11091;DHT22;5599;52.210;21.046;2023-02-01T00:19:07;4.00;99.90
11091;DHT22;5599;52.210;21.046;2023-02-01T00:21:37;4.00;99.90
11091;DHT22;5599;52.210;21.046;2023-02-01T00:24:09;4.10;99.90
11091;DHT22;5599;52.210;21.046;2023-02-01T00:26:40;4.10;99.90
11091;DHT22;5599;52.210;21.046;2023-02-01T00:29:12;4.10;99.90
11091;DHT22;5599;52.210;21.046;2023-02-01T00:31:42;4.10;99.90
11091;DHT22;5599;52.210;21.046;2023-02-01T00:34:13;4.10;99.90
11091;DHT22;5599;52.210;21.046;2023-02-01T00:36:43;4.20;99.90
11091;DHT22;5599;52.210;21.046;2023-02-01T00:39:15;4.20;99.90
11091;DHT22;5599;52.210;21.046;2023-02-01T00:41:45;4.20;93.00
11091;DHT22;5599;52.210;21.046;2023-02-01T00:44:14;4.30;54.90
11091;DHT22;5599;52.210;21.046;2023-02-01T00:46:44;4.30;1.00
11091;DHT22;5599;52.210;21.046;2023-02-01T00:49:13;4.30;1.00
11091;DHT22;5599;52.210;21.046;2023-02-01T00:51:43;4.30;1.00
11091;DHT22;5599;52.210;21.046;2023-02-01T00:54:13;4.30;1.00
11091;DHT22;5599;52.210;21.046;2023-02-01T00:56:43;4.30;1.00
11091;DHT22;5599;52.210;21.046;2023-02-01T00:59:12;4.30;1.00
11091;DHT22;5599;52.210;21.046;2023-02-01T01:01:41;4.40;1.00
11091;DHT22;5599;52.210;21.046;2023-02-01T01:04:11;4.40;1.00
11091;DHT22;5599;52.210;21.046;2023-02-01T01:06:40;4.40;1.00
11091;DHT22;5599;52.210;21.046;2023-02-01T01:09:09;4.50;1.00
11091;DHT22;5599;52.210;21.046;2023-02-01T01:11:40;4.40;1.00
11091;DHT22;5599;52.210;21.046;2023-02-01T01:14:11;4.40;99.90
11091;DHT22;5599;52.210;21.046;2023-02-01T01:16:40;4.40;99.90
11091;DHT22;5599;52.210;21.046;2023-02-01T01:19:09;4.40;99.90
11091;DHT22;5599;52.210;21.046;2023-02-01T01:21:39;4.40;99.90
11091;DHT22;5599;52.210;21.046;2023-02-01T01:24:08;4.40;99.90
11091;DHT22;5599;52.210;21.046;2023-02-01T01:26:39;4.40;99.90
11091;DHT22;5599;52.210;21.046;2023-02-01T01:29:09;4.40;99.90
11091;DHT22;5599;52.210;21.046;2023-02-01T01:31:38;4.30;99.90
11091;DHT22;5599;52.210;21.046;2023-02-01T01:34:08;4.30;99.90
11091;DHT22;5599;52.210;21.046;2023-02-01T01:36:38;4.20;99.90
11091;DHT22;5599;52.210;21.046;2023-02-01T01:39:07;4.30;99.90
11091;DHT22;5599;52.210;21.046;2023-02-01T01:41:36;4.20;99.90
11091;DHT22;5599;52.210;21.046;2023-02-01T01:44:59;4.20;99.90
11091;DHT22;5599;52.210;21.046;2023-02-01T01:47:34;4.20;99.90
11091;DHT22;5599;52.210;21.046;2023-02-01T01:50:08;4.30;99.90
11091;DHT22;5599;52.210;21.046;2023-02-01T01:52:39;4.20;99.90
11091;DHT22;5599;52.210;21.046;2023-02-01T01:55:10;4.10;99.90
11091;DHT22;5599;52.210;21.046;2023-02-01T01:57:42;4.20;99.90
11091;DHT22;5599;52.210;21.046;2023-02-01T02:00:16;4.20;99.90
11091;DHT22;5599;52.210;21.046;2023-02-01T02:02:52;4.10;99.90
11091;DHT22;5599;52.210;21.046;2023-02-01T02:05:23;4.10;99.90
11091;DHT22;5599;52.210;21.046;2023-02-01T02:07:57;4.10;99.90
11091;DHT22;5599;52.210;21.046;2023-02-01T02:10:27;4.20;99.90
11091;DHT22;5599;52.210;21.046;2023-02-01T02:13:11;4.20;99.90
11091;DHT22;5599;52.210;21.046;2023-02-01T02:15:47;4.20;44.80
11091;DHT22;5599;52.210;21.046;2023-02-01T02:18:21;4.20;1.00
11091;DHT22;5599;52.210;21.046;2023-02-01T02:21:07;4.30;1.00
11091;DHT22;5599;52.210;21.046;2023-02-01T02:24:02;4.20;1.00
11091;DHT22;5599;52.210;21.046;2023-02-01T02:27:06;4.20;1.00
11091;DHT22;5599;52.210;21.046;2023-02-01T02:36:22;4.10;1.00
11091;DHT22;5599;52.210;21.046;2023-02-01T02:39:06;4.10;1.00
11091;DHT22;5599;52.210;21.046;2023-02-01T02:41:47;4.20;1.00
11091;DHT22;5599;52.210;21.046;2023-02-01T02:44:43;4.10;1.00
11091;DHT22;5599;52.210;21.046;2023-02-01T02:47:35;4.10;99.90
11091;DHT22;5599;52.210;21.046;2023-02-01T02:50:12;4.10;99.90
11091;DHT22;5599;52.210;21.046;2023-02-01T02:53:07;4.10;1.00
11091;DHT22;5599;52.210;21.046;2023-02-01T02:55:56;4.10;1.00
11091;DHT22;5599;52.210;21.046;2023-02-01T02:58:45;4.10;99.90
11091;DHT22;5599;52.210;21.046;2023-02-01T03:01:33;4.10;1.00
11091;DHT22;5599;52.210;21.046;2023-02-01T03:04:20;4.10;1.00
11091;DHT22;5599;52.210;21.046;2023-02-01T03:06:52;4.10;1.00
11091;DHT22;5599;52.210;21.046;2023-02-01T03:09:29;4.10;1.00
11091;DHT22;5599;52.210;21.046;2023-02-01T03:12:04;4.20;1.00
11091;DHT22;5599;52.210;21.046;2023-02-01T03:14:56;4.20;1.00
11091;DHT22;5599;52.210;21.046;2023-02-01T03:17:31;4.20;1.00
11091;DHT22;5599;52.210;21.046;2023-02-01T03:20:03;4.20;1.00
11091;DHT22;5599;52.210;21.046;2023-02-01T03:22:33;4.20;1.00
11091;DHT22;5599;52.210;21.046;2023-02-01T03:25:09;4.20;1.00
11091;DHT22;5599;52.210;21.046;2023-02-01T03:27:42;4.20;1.00
11091;DHT22;5599;52.210;21.046;2023-02-01T03:30:17;4.30;1.00
11091;DHT22;5599;52.210;21.046;2023-02-01T03:32:50;4.30;1.00
11091;DHT22;5599;52.210;21.046;2023-02-01T03:35:36;4.20;1.00
11091;DHT22;5599;52.210;21.046;2023-02-01T03:38:12;4.20;1.00
11091;DHT22;5599;52.210;21.046;2023-02-01T03:40:50;4.10;99.90
11091;DHT22;5599;52.210;21.046;2023-02-01T03:43:22;4.10;99.90
11091;DHT22;5599;52.210;21.046;2023-02-01T03:45:56;4.10;99.90
11091;DHT22;5599;52.210;21.046;2023-02-01T03:48:28;4.10;99.90
11091;DHT22;5599;52.210;21.046;2023-02-01T03:51:01;4.00;99.90
11091;DHT22;5599;52.210;21.046;2023-02-01T03:53:34;4.00;99.90
11091;DHT22;5599;52.210;21.046;2023-02-01T03:56:08;3.90;99.90
11091;DHT22;5599;52.210;21.046;2023-02-01T03:58:40;3.90;1.00
11091;DHT22;5599;52.210;21.046;2023-02-01T04:01:09;3.90;1.00
11091;DHT22;5599;52.210;21.046;2023-02-01T04:03:38;3.90;1.00
11091;DHT22;5599;52.210;21.046;2023-02-01T04:06:08;3.90;1.00
11091;DHT22;5599;52.210;21.046;2023-02-01T04:08:37;4.00;1.00
11091;DHT22;5599;52.210;21.046;2023-02-01T04:11:08;4.00;1.00
11091;DHT22;5599;52.210;21.046;2023-02-01T04:13:37;4.00;1.00
11091;DHT22;5599;52.210;21.046;2023-02-01T04:16:07;4.00;1.00
11091;DHT22;5599;52.210;21.046;2023-02-01T04:18:36;4.00;1.00
11091;DHT22;5599;52.210;21.046;2023-02-01T04:21:06;4.00;99.90
11091;DHT22;5599;52.210;21.046;2023-02-01T04:23:35;4.00;1.00
11091;DHT22;5599;52.210;21.046;2023-02-01T04:26:05;4.00;99.90
11091;DHT22;5599;52.210;21.046;2023-02-01T04:28:35;4.00;99.90
11091;DHT22;5599;52.210;21.046;2023-02-01T04:31:05;4.10;99.90
11091;DHT22;5599;52.210;21.046;2023-02-01T04:33:34;4.10;99.90
11091;DHT22;5599;52.210;21.046;2023-02-01T04:36:04;4.10;99.90
11091;DHT22;5599;52.210;21.046;2023-02-01T04:38:33;4.10;99.90
11091;DHT22;5599;52.210;21.046;2023-02-01T04:41:02;4.10;99.90
11091;DHT22;5599;52.210;21.046;2023-02-01T04:43:31;4.10;99.90
11091;DHT22;5599;52.210;21.046;2023-02-01T04:46:02;4.10;99.90
11091;DHT22;5599;52.210;21.046;2023-02-01T04:48:32;4.10;99.90
11091;DHT22;5599;52.210;21.046;2023-02-01T04:51:01;4.10;54.20
11091;DHT22;5599;52.210;21.046;2023-02-01T04:53:30;4.10;1.00
11091;DHT22;5599;52.210;21.046;2023-02-01T04:56:00;4.10;2.00
11091;DHT22;5599;52.210;21.046;2023-02-01T04:58:29;4.10;1.00
11091;DHT22;5599;52.210;21.046;2023-02-01T05:00:58;4.20;1.00
11091;DHT22;5599;52.210;21.046;2023-02-01T05:03:31;4.20;1.00
11091;DHT22;5599;52.210;21.046;2023-02-01T05:06:01;4.20;1.00
11091;DHT22;5599;52.210;21.046;2023-02-01T05:08:31;4.20;1.00
11091;DHT22;5599;52.210;21.046;2023-02-01T05:11:00;4.20;1.00
11091;DHT22;5599;52.210;21.046;2023-02-01T05:13:31;4.30;1.00
11091;DHT22;5599;52.210;21.046;2023-02-01T05:16:17;4.30;1.00
11091;DHT22;5599;52.210;21.046;2023-02-01T05:18:48;4.30;99.90
11091;DHT22;5599;52.210;21.046;2023-02-01T05:21:17;4.30;99.90
11091;DHT22;5599;52.210;21.046;2023-02-01T05:23:46;4.30;1.00
11091;DHT22;5599;52.210;21.046;2023-02-01T05:26:33;4.30;99.90
11091;DHT22;5599;52.210;21.046;2023-02-01T05:29:02;4.30;99.90
11091;DHT22;5599;52.210;21.046;2023-02-01T05:31:31;4.30;99.90
11091;DHT22;5599;52.210;21.046;2023-02-01T05:34:03;4.30;99.90
11091;DHT22;5599;52.210;21.046;2023-02-01T05:36:32;4.30;99.90
11091;DHT22;5599;52.210;21.046;2023-02-01T05:39:02;4.30;99.90
11091;DHT22;5599;52.210;21.046;2023-02-01T05:41:31;4.30;99.90
11091;DHT22;5599;52.210;21.046;2023-02-01T05:44:00;4.30;99.90
11091;DHT22;5599;52.210;21.046;2023-02-01T05:46:30;4.40;99.90
11091;DHT22;5599;52.210;21.046;2023-02-01T05:49:01;4.30;1.00
11091;DHT22;5599;52.210;21.046;2023-02-01T05:51:31;4.30;99.90
11091;DHT22;5599;52.210;21.046;2023-02-01T05:54:01;4.20;99.90
11091;DHT22;5599;52.210;21.046;2023-02-01T05:56:30;4.30;99.90
11091;DHT22;5599;52.210;21.046;2023-02-01T05:58:59;4.20;99.90
11091;DHT22;5599;52.210;21.046;2023-02-01T06:01:31;4.30;99.90
11091;DHT22;5599;52.210;21.046;2023-02-01T06:04:02;4.20;99.90
11091;DHT22;5599;52.210;21.046;2023-02-01T06:06:31;4.30;99.90
11091;DHT22;5599;52.210;21.046;2023-02-01T06:09:01;4.20;99.90
11091;DHT22;5599;52.210;21.046;2023-02-01T06:11:30;4.20;99.90
11091;DHT22;5599;52.210;21.046;2023-02-01T06:14:00;4.20;99.90
11091;DHT22;5599;52.210;21.046;2023-02-01T06:16:29;4.20;1.00
11091;DHT22;5599;52.210;21.046;2023-02-01T06:18:59;4.20;1.00
11091;DHT22;5599;52.210;21.046;2023-02-01T06:21:30;4.20;1.00
11091;DHT22;5599;52.210;21.046;2023-02-01T06:23:59;4.20;1.00
11091;DHT22;5599;52.210;21.046;2023-02-01T06:26:28;4.20;1.00
11091;DHT22;5599;52.210;21.046;2023-02-01T06:28:57;4.20;1.00
11091;DHT22;5599;52.210;21.046;2023-02-01T06:31:27;4.20;1.00
11091;DHT22;5599;52.210;21.046;2023-02-01T06:33:57;4.20;1.00
11091;DHT22;5599;52.210;21.046;2023-02-01T06:36:26;4.20;1.00
11091;DHT22;5599;52.210;21.046;2023-02-01T06:38:57;4.20;1.00
11091;DHT22;5599;52.210;21.046;2023-02-01T06:41:27;4.30;1.00
11091;DHT22;5599;52.210;21.046;2023-02-01T06:43:56;4.20;99.90
11091;DHT22;5599;52.210;21.046;2023-02-01T06:46:25;4.20;1.00
11091;DHT22;5599;52.210;21.046;2023-02-01T06:48:55;4.30;1.00
11091;DHT22;5599;52.210;21.046;2023-02-01T06:51:26;4.40;99.90
11091;DHT22;5599;52.210;21.046;2023-02-01T06:53:57;4.40;99.90
11091;DHT22;5599;52.210;21.046;2023-02-01T06:56:27;4.40;99.90
11091;DHT22;5599;52.210;21.046;2023-02-01T06:58:56;4.40;99.90
11091;DHT22;5599;52.210;21.046;2023-02-01T07:01:25;4.40;99.90
11091;DHT22;5599;52.210;21.046;2023-02-01T07:03:55;4.50;99.90
11091;DHT22;5599;52.210;21.046;2023-02-01T07:06:24;4.40;99.90
11091;DHT22;5599;52.210;21.046;2023-02-01T07:08:53;4.40;99.90
11091;DHT22;5599;52.210;21.046;2023-02-01T07:11:25;4.40;99.90
11091;DHT22;5599;52.210;21.046;2023-02-01T07:13:55;4.40;99.90
11091;DHT22;5599;52.210;21.046;2023-02-01T07:16:25;4.40;99.90
11091;DHT22;5599;52.210;21.046;2023-02-01T07:18:54;4.40;99.90
11091;DHT22;5599;52.210;21.046;2023-02-01T07:21:24;4.50;99.90
11091;DHT22;5599;52.210;21.046;2023-02-01T07:23:55;4.40;99.90
11091;DHT22;5599;52.210;21.046;2023-02-01T07:26:26;4.40;99.90
11091;DHT22;5599;52.210;21.046;2023-02-01T07:28:55;4.40;99.90
11091;DHT22;5599;52.210;21.046;2023-02-01T07:31:25;4.40;99.90
11091;DHT22;5599;52.210;21.046;2023-02-01T07:33:57;4.40;26.70
11091;DHT22;5599;52.210;21.046;2023-02-01T07:36:27;4.50;99.90
11091;DHT22;5599;52.210;21.046;2023-02-01T07:38:57;4.50;99.90
11091;DHT22;5599;52.210;21.046;2023-02-01T07:41:28;4.40;99.90
11091;DHT22;5599;52.210;21.046;2023-02-01T07:43:57;4.50;1.00
11091;DHT22;5599;52.210;21.046;2023-02-01T07:46:27;4.50;1.00
11091;DHT22;5599;52.210;21.046;2023-02-01T07:48:56;4.50;1.00
11091;DHT22;5599;52.210;21.046;2023-02-01T07:51:25;4.50;99.90
11091;DHT22;5599;52.210;21.046;2023-02-01T07:53:55;4.60;99.90
11091;DHT22;5599;52.210;21.046;2023-02-01T07:56:24;4.60;99.90
11091;DHT22;5599;52.210;21.046;2023-02-01T07:58:55;4.50;99.90
11091;DHT22;5599;52.210;21.046;2023-02-01T08:01:28;4.60;99.90
11091;DHT22;5599;52.210;21.046;2023-02-01T08:03:57;4.50;99.90
11091;DHT22;5599;52.210;21.046;2023-02-01T08:06:28;4.60;99.90
11091;DHT22;5599;52.210;21.046;2023-02-01T08:08:58;4.60;99.90
11091;DHT22;5599;52.210;21.046;2023-02-01T08:11:28;4.60;99.90
11091;DHT22;5599;52.210;21.046;2023-02-01T08:13:59;4.70;99.90
11091;DHT22;5599;52.210;21.046;2023-02-01T08:16:28;4.60;99.90
11091;DHT22;5599;52.210;21.046;2023-02-01T08:18:58;4.60;1.00
11091;DHT22;5599;52.210;21.046;2023-02-01T08:21:28;4.70;99.90
11091;DHT22;5599;52.210;21.046;2023-02-01T08:24:06;4.70;99.90
11091;DHT22;5599;52.210;21.046;2023-02-01T08:26:37;4.70;99.90
11091;DHT22;5599;52.210;21.046;2023-02-01T08:29:09;4.80;99.90
11091;DHT22;5599;52.210;21.046;2023-02-01T08:31:40;4.80;99.90
11091;DHT22;5599;52.210;21.046;2023-02-01T08:34:09;4.70;99.90
11091;DHT22;5599;52.210;21.046;2023-02-01T08:36:39;4.70;99.90
11091;DHT22;5599;52.210;21.046;2023-02-01T08:39:10;4.70;99.90
11091;DHT22;5599;52.210;21.046;2023-02-01T08:41:40;4.60;1.00
11091;DHT22;5599;52.210;21.046;2023-02-01T08:44:31;4.60;1.00
11091;DHT22;5599;52.210;21.046;2023-02-01T08:47:01;4.60;1.00
11091;DHT22;5599;52.210;21.046;2023-02-01T08:49:30;4.60;1.00
11091;DHT22;5599;52.210;21.046;2023-02-01T08:51:59;4.60;1.00
11091;DHT22;5599;52.210;21.046;2023-02-01T08:54:37;4.60;1.00
11091;DHT22;5599;52.210;21.046;2023-02-01T08:57:08;4.60;1.00
11091;DHT22;5599;52.210;21.046;2023-02-01T08:59:39;4.70;99.90
11091;DHT22;5599;52.210;21.046;2023-02-01T09:02:09;4.70;80.20
11091;DHT22;5599;52.210;21.046;2023-02-01T09:04:40;4.70;1.00
11091;DHT22;5599;52.210;21.046;2023-02-01T09:07:10;4.70;1.00
11091;DHT22;5599;52.210;21.046;2023-02-01T09:09:40;4.70;1.00
11091;DHT22;5599;52.210;21.046;2023-02-01T09:12:10;4.80;1.00
11091;DHT22;5599;52.210;21.046;2023-02-01T09:14:41;4.80;99.90
11091;DHT22;5599;52.210;21.046;2023-02-01T09:17:10;4.90;1.00
11091;DHT22;5599;52.210;21.046;2023-02-01T09:19:41;4.90;1.00
11091;DHT22;5599;52.210;21.046;2023-02-01T09:22:10;4.90;99.90
11091;DHT22;5599;52.210;21.046;2023-02-01T09:24:40;4.90;1.00
11091;DHT22;5599;52.210;21.046;2023-02-01T09:27:10;4.90;1.00
11091;DHT22;5599;52.210;21.046;2023-02-01T09:29:41;4.90;1.00
11091;DHT22;5599;52.210;21.046;2023-02-01T09:32:10;5.00;18.50
11091;DHT22;5599;52.210;21.046;2023-02-01T09:34:40;5.00;99.90
11091;DHT22;5599;52.210;21.046;2023-02-01T09:37:09;5.00;99.90
11091;DHT22;5599;52.210;21.046;2023-02-01T09:39:38;5.10;1.00
11091;DHT22;5599;52.210;21.046;2023-02-01T09:42:21;5.20;1.00
11091;DHT22;5599;52.210;21.046;2023-02-01T09:45:19;5.20;86.70
11091;DHT22;5599;52.210;21.046;2023-02-01T09:47:52;5.20;99.90
11091;DHT22;5599;52.210;21.046;2023-02-01T09:50:28;5.10;1.00
11091;DHT22;5599;52.210;21.046;2023-02-01T09:53:02;5.30;1.00
11091;DHT22;5599;52.210;21.046;2023-02-01T09:55:36;5.40;1.00
11091;DHT22;5599;52.210;21.046;2023-02-01T09:58:11;5.60;43.80
11091;DHT22;5599;52.210;21.046;2023-02-01T10:00:49;5.70;1.00
11091;DHT22;5599;52.210;21.046;2023-02-01T10:03:20;5.70;99.90
11091;DHT22;5599;52.210;21.046;2023-02-01T10:06:10;5.70;1.00
11091;DHT22;5599;52.210;21.046;2023-02-01T10:09:05;5.90;99.90
11091;DHT22;5599;52.210;21.046;2023-02-01T10:11:46;5.90;1.00
11091;DHT22;5599;52.210;21.046;2023-02-01T10:14:39;5.90;99.90
11091;DHT22;5599;52.210;21.046;2023-02-01T10:17:22;5.80;1.00
11091;DHT22;5599;52.210;21.046;2023-02-01T10:20:02;5.80;99.90
11091;DHT22;5599;52.210;21.046;2023-02-01T10:22:40;5.80;99.90
11091;DHT22;5599;52.210;21.046;2023-02-01T10:25:36;5.90;99.90
11091;DHT22;5599;52.210;21.046;2023-02-01T10:28:11;5.80;99.90
11091;DHT22;5599;52.210;21.046;2023-02-01T10:30:45;5.80;99.90
11091;DHT22;5599;52.210;21.046;2023-02-01T10:33:18;5.80;99.90
11091;DHT22;5599;52.210;21.046;2023-02-01T10:35:51;5.80;99.90
11091;DHT22;5599;52.210;21.046;2023-02-01T10:38:26;5.80;1.00
11091;DHT22;5599;52.210;21.046;2023-02-01T10:41:00;5.80;99.90
11091;DHT22;5599;52.210;21.046;2023-02-01T10:43:30;5.80;1.00
11091;DHT22;5599;52.210;21.046;2023-02-01T10:46:01;5.80;1.00
11091;DHT22;5599;52.210;21.046;2023-02-01T10:48:33;5.90;25.90
11091;DHT22;5599;52.210;21.046;2023-02-01T10:51:06;5.90;99.90
11091;DHT22;5599;52.210;21.046;2023-02-01T10:53:42;5.90;1.00
11091;DHT22;5599;52.210;21.046;2023-02-01T10:56:13;5.90;99.90
11091;DHT22;5599;52.210;21.046;2023-02-01T10:58:45;5.90;1.00
11091;DHT22;5599;52.210;21.046;2023-02-01T11:01:17;6.00;99.90
11091;DHT22;5599;52.210;21.046;2023-02-01T11:03:54;6.00;1.00
11091;DHT22;5599;52.210;21.046;2023-02-01T11:06:30;6.00;99.90
11091;DHT22;5599;52.210;21.046;2023-02-01T11:09:08;6.10;1.00
11091;DHT22;5599;52.210;21.046;2023-02-01T11:11:54;6.20;1.00
11091;DHT22;5599;52.210;21.046;2023-02-01T11:14:35;6.30;1.00
11091;DHT22;5599;52.210;21.046;2023-02-01T11:17:25;6.50;99.90
11091;DHT22;5599;52.210;21.046;2023-02-01T11:20:02;6.60;99.90
11091;DHT22;5599;52.210;21.046;2023-02-01T11:22:32;6.70;99.90
11091;DHT22;5599;52.210;21.046;2023-02-01T11:25:09;6.80;69.00
11091;DHT22;5599;52.210;21.046;2023-02-01T11:27:40;6.80;99.90
11091;DHT22;5599;52.210;21.046;2023-02-01T11:30:30;6.70;99.90
11091;DHT22;5599;52.210;21.046;2023-02-01T11:33:03;6.70;50.50
11091;DHT22;5599;52.210;21.046;2023-02-01T11:35:38;6.70;1.00
11091;DHT22;5599;52.210;21.046;2023-02-01T11:38:20;6.60;1.00
11091;DHT22;5599;52.210;21.046;2023-02-01T11:40:50;6.60;99.90
11091;DHT22;5599;52.210;21.046;2023-02-01T11:43:23;6.40;1.00
11091;DHT22;5599;52.210;21.046;2023-02-01T11:45:56;6.40;99.90
11091;DHT22;5599;52.210;21.046;2023-02-01T11:48:27;6.30;99.90
11091;DHT22;5599;52.210;21.046;2023-02-01T11:51:21;6.30;1.00
11091;DHT22;5599;52.210;21.046;2023-02-01T11:54:07;6.20;99.90
11091;DHT22;5599;52.210;21.046;2023-02-01T11:56:43;6.20;99.90
11091;DHT22;5599;52.210;21.046;2023-02-01T11:59:25;6.20;1.00
11091;DHT22;5599;52.210;21.046;2023-02-01T12:02:33;6.30;1.00
11091;DHT22;5599;52.210;21.046;2023-02-01T12:05:25;6.40;99.90
11091;DHT22;5599;52.210;21.046;2023-02-01T12:08:15;6.60;99.90
11091;DHT22;5599;52.210;21.046;2023-02-01T12:10:53;6.70;1.00
11091;DHT22;5599;52.210;21.046;2023-02-01T12:13:38;6.80;1.00
11091;DHT22;5599;52.210;21.046;2023-02-01T12:16:19;6.80;20.70
11091;DHT22;5599;52.210;21.046;2023-02-01T12:19:15;6.70;99.90
11091;DHT22;5599;52.210;21.046;2023-02-01T12:21:55;6.50;1.00
11091;DHT22;5599;52.210;21.046;2023-02-01T12:27:55;6.50;1.00
11091;DHT22;5599;52.210;21.046;2023-02-01T12:30:47;6.50;1.00
11091;DHT22;5599;52.210;21.046;2023-02-01T12:33:27;6.40;99.90
11091;DHT22;5599;52.210;21.046;2023-02-01T12:36:09;6.50;99.90
11091;DHT22;5599;52.210;21.046;2023-02-01T12:38:52;6.60;99.90
11091;DHT22;5599;52.210;21.046;2023-02-01T12:41:49;6.50;99.90
11091;DHT22;5599;52.210;21.046;2023-02-01T12:44:27;6.40;1.00
11091;DHT22;5599;52.210;21.046;2023-02-01T12:47:00;6.30;99.90
11091;DHT22;5599;52.210;21.046;2023-02-01T12:49:46;6.30;1.00
11091;DHT22;5599;52.210;21.046;2023-02-01T12:52:23;6.20;99.90
11091;DHT22;5599;52.210;21.046;2023-02-01T12:54:57;6.20;99.90
11091;DHT22;5599;52.210;21.046;2023-02-01T12:57:32;6.20;99.90
11091;DHT22;5599;52.210;21.046;2023-02-01T13:00:13;6.20;1.00
11091;DHT22;5599;52.210;21.046;2023-02-01T13:02:56;6.30;1.00
11091;DHT22;5599;52.210;21.046;2023-02-01T13:05:31;6.30;99.90
11091;DHT22;5599;52.210;21.046;2023-02-01T13:08:06;6.40;99.90
11091;DHT22;5599;52.210;21.046;2023-02-01T13:10:40;6.50;60.50
11091;DHT22;5599;52.210;21.046;2023-02-01T13:13:18;6.50;99.90
11091;DHT22;5599;52.210;21.046;2023-02-01T13:15:55;6.50;99.90
11091;DHT22;5599;52.210;21.046;2023-02-01T13:18:34;6.50;99.90
11091;DHT22;5599;52.210;21.046;2023-02-01T13:21:08;6.60;99.90
11091;DHT22;5599;52.210;21.046;2023-02-01T13:23:40;6.50;1.00
11091;DHT22;5599;52.210;21.046;2023-02-01T13:26:11;6.40;99.90
11091;DHT22;5599;52.210;21.046;2023-02-01T13:28:45;6.30;99.90
11091;DHT22;5599;52.210;21.046;2023-02-01T13:31:49;6.40;1.00
11091;DHT22;5599;52.210;21.046;2023-02-01T13:34:42;6.30;1.00
11091;DHT22;5599;52.210;21.046;2023-02-01T13:37:27;6.30;99.90
11091;DHT22;5599;52.210;21.046;2023-02-01T13:40:17;6.10;99.90
11091;DHT22;5599;52.210;21.046;2023-02-01T13:42:52;6.10;99.90
11091;DHT22;5599;52.210;21.046;2023-02-01T13:45:26;6.10;99.90
11091;DHT22;5599;52.210;21.046;2023-02-01T13:48:00;6.00;1.00
11091;DHT22;5599;52.210;21.046;2023-02-01T13:50:32;6.00;1.00
11091;DHT22;5599;52.210;21.046;2023-02-01T13:53:16;6.00;1.00
11091;DHT22;5599;52.210;21.046;2023-02-01T13:55:49;6.00;1.00
11091;DHT22;5599;52.210;21.046;2023-02-01T13:58:30;5.90;99.90
11091;DHT22;5599;52.210;21.046;2023-02-01T14:01:35;5.90;1.00
11091;DHT22;5599;52.210;21.046;2023-02-01T14:04:05;5.90;99.90
11091;DHT22;5599;52.210;21.046;2023-02-01T14:06:42;5.80;99.90
11091;DHT22;5599;52.210;21.046;2023-02-01T14:09:16;5.80;1.00
11091;DHT22;5599;52.210;21.046;2023-02-01T14:11:51;5.70;1.00
11091;DHT22;5599;52.210;21.046;2023-02-01T14:14:45;5.70;77.30
11091;DHT22;5599;52.210;21.046;2023-02-01T14:17:37;5.60;68.80
11091;DHT22;5599;52.210;21.046;2023-02-01T14:23:16;5.70;59.40
11091;DHT22;5599;52.210;21.046;2023-02-01T14:25:59;5.70;36.10
11091;DHT22;5599;52.210;21.046;2023-02-01T14:28:30;5.70;1.00
11091;DHT22;5599;52.210;21.046;2023-02-01T14:31:00;5.80;99.90
11091;DHT22;5599;52.210;21.046;2023-02-01T14:33:31;5.80;51.00
11091;DHT22;5599;52.210;21.046;2023-02-01T14:36:07;5.90;1.00
11091;DHT22;5599;52.210;21.046;2023-02-01T14:38:38;5.80;99.90
11091;DHT22;5599;52.210;21.046;2023-02-01T14:41:23;5.80;99.90
11091;DHT22;5599;52.210;21.046;2023-02-01T14:47:33;5.80;1.00
11091;DHT22;5599;52.210;21.046;2023-02-01T14:50:31;5.90;1.00
11091;DHT22;5599;52.210;21.046;2023-02-01T14:53:18;5.90;99.90
11091;DHT22;5599;52.210;21.046;2023-02-01T14:55:54;5.80;5.30
11091;DHT22;5599;52.210;21.046;2023-02-01T14:58:36;5.80;99.90
11091;DHT22;5599;52.210;21.046;2023-02-01T15:01:17;5.80;1.00
11091;DHT22;5599;52.210;21.046;2023-02-01T15:03:58;5.80;1.00
11091;DHT22;5599;52.210;21.046;2023-02-01T15:06:37;5.80;1.00
11091;DHT22;5599;52.210;21.046;2023-02-01T15:09:10;5.80;1.00
11091;DHT22;5599;52.210;21.046;2023-02-01T15:11:58;5.70;99.90
11091;DHT22;5599;52.210;21.046;2023-02-01T15:14:30;5.70;1.00
11091;DHT22;5599;52.210;21.046;2023-02-01T15:17:00;5.80;1.00
11091;DHT22;5599;52.210;21.046;2023-02-01T15:19:30;5.70;11.90
11091;DHT22;5599;52.210;21.046;2023-02-01T15:22:01;5.70;97.60
11091;DHT22;5599;52.210;21.046;2023-02-01T15:24:31;5.70;99.90
11091;DHT22;5599;52.210;21.046;2023-02-01T15:27:04;5.70;99.70
11091;DHT22;5599;52.210;21.046;2023-02-01T15:29:33;5.70;1.00
11091;DHT22;5599;52.210;21.046;2023-02-01T15:32:03;5.70;1.00
11091;DHT22;5599;52.210;21.046;2023-02-01T15:34:47;5.60;1.00
11091;DHT22;5599;52.210;21.046;2023-02-01T15:37:21;5.70;4.10
11091;DHT22;5599;52.210;21.046;2023-02-01T15:40:19;5.60;1.00
11091;DHT22;5599;52.210;21.046;2023-02-01T15:42:52;5.60;1.00
11091;DHT22;5599;52.210;21.046;2023-02-01T15:45:25;5.60;5.70
11091;DHT22;5599;52.210;21.046;2023-02-01T15:47:57;5.60;1.00
11091;DHT22;5599;52.210;21.046;2023-02-01T15:50:30;5.60;1.00
11091;DHT22;5599;52.210;21.046;2023-02-01T15:53:01;5.60;1.00
11091;DHT22;5599;52.210;21.046;2023-02-01T15:55:36;5.60;1.00
11091;DHT22;5599;52.210;21.046;2023-02-01T15:58:15;5.60;1.00
11091;DHT22;5599;52.210;21.046;2023-02-01T16:00:47;5.60;99.90
11091;DHT22;5599;52.210;21.046;2023-02-01T16:03:26;5.70;99.90
11091;DHT22;5599;52.210;21.046;2023-02-01T16:05:58;5.60;99.90
11091;DHT22;5599;52.210;21.046;2023-02-01T16:08:30;5.60;1.00
11091;DHT22;5599;52.210;21.046;2023-02-01T16:11:16;5.60;1.00
11091;DHT22;5599;52.210;21.046;2023-02-01T16:13:49;5.50;1.00
11091;DHT22;5599;52.210;21.046;2023-02-01T16:16:18;5.50;99.90
11091;DHT22;5599;52.210;21.046;2023-02-01T16:21:17;5.50;99.90
11091;DHT22;5599;52.210;21.046;2023-02-01T16:23:52;5.30;1.00
11091;DHT22;5599;52.210;21.046;2023-02-01T16:26:22;5.20;1.00
11091;DHT22;5599;52.210;21.046;2023-02-01T16:28:53;5.10;1.00
11091;DHT22;5599;52.210;21.046;2023-02-01T16:31:26;5.30;1.00
11091;DHT22;5599;52.210;21.046;2023-02-01T16:33:57;5.30;1.00
11091;DHT22;5599;52.210;21.046;2023-02-01T16:36:28;5.30;1.00
11091;DHT22;5599;52.210;21.046;2023-02-01T16:38:59;5.30;1.00
11091;DHT22;5599;52.210;21.046;2023-02-01T16:41:30;5.20;1.00
11091;DHT22;5599;52.210;21.046;2023-02-01T16:44:00;5.20;1.00
11091;DHT22;5599;52.210;21.046;2023-02-01T16:46:33;5.20;1.00
11091;DHT22;5599;52.210;21.046;2023-02-01T16:49:04;5.20;1.00
11091;DHT22;5599;52.210;21.046;2023-02-01T16:51:41;5.20;1.00
11091;DHT22;5599;52.210;21.046;2023-02-01T16:54:17;5.20;1.00
11091;DHT22;5599;52.210;21.046;2023-02-01T16:56:46;4.30;1.00
11091;DHT22;5599;52.210;21.046;2023-02-01T16:59:17;5.10;1.00